createdAt,value
2023-04-27T00:00:41.824Z,86.78
2023-04-27T00:05:32.359Z,84.81
2023-04-27T00:10:22.447Z,86.45
2023-04-27T00:15:13.916Z,85.78
2023-04-27T00:20:07.884Z,85.82
2023-04-27T00:24:59.908Z,86.57
2023-04-27T00:29:49.814Z,87.34
2023-04-27T00:34:40.403Z,87.68
2023-04-27T00:39:33.069Z,88.94
2023-04-27T00:44:27.493Z,88.85
2023-04-27T00:49:19.443Z,89.30
2023-04-27T00:54:10.405Z,89.44
2023-04-27T00:59:02.978Z,89.84
2023-04-27T01:03:53.017Z,90.63
2023-04-27T01:08:43.281Z,91.24
2023-04-27T01:13:33.228Z,91.13
2023-04-27T01:18:26.967Z,91.25
2023-04-27T01:23:19.857Z,91.22
2023-04-27T01:28:09.706Z,91.33
2023-04-27T01:33:00.949Z,91.49
2023-04-27T01:37:50.920Z,91.23
2023-04-27T01:42:43.530Z,91.42
2023-04-27T01:47:33.515Z,92.63
2023-04-27T01:52:23.412Z,92.84
2023-04-27T01:57:14.533Z,93.95
2023-04-27T02:02:07.351Z,94.25
2023-04-27T02:06:59.951Z,93.64
2023-04-27T02:11:50.838Z,93.99
2023-04-27T02:16:40.806Z,94.15
2023-04-27T02:21:36.615Z,94.37
2023-04-27T02:26:29.643Z,94.23
2023-04-27T02:31:20.666Z,93.89
2023-04-27T02:36:11.865Z,93.75
2023-04-27T02:41:04.451Z,93.35
2023-04-27T02:45:57.330Z,93.54
2023-04-27T02:50:48.056Z,93.38
2023-04-27T02:55:41.225Z,93.07
2023-04-27T03:00:34.305Z,93.56
2023-04-27T03:05:29.197Z,94.23
2023-04-27T03:10:19.314Z,94.27
2023-04-27T03:15:10.346Z,94.65
2023-04-27T03:20:05.103Z,94.15
2023-04-27T03:24:54.987Z,94.13
2023-04-27T03:29:44.931Z,94.21
2023-04-27T03:34:34.993Z,93.80
2023-04-27T03:39:27.887Z,93.60
2023-04-27T03:44:17.919Z,94.23
2023-04-27T03:49:09.956Z,94.28
2023-04-27T03:54:00.248Z,95.04
2023-04-27T03:58:53.364Z,94.62
2023-04-27T04:03:45.727Z,95.84
2023-04-27T04:08:35.924Z,95.50
2023-04-27T04:13:27.127Z,95.16
2023-04-27T04:18:19.964Z,94.93
2023-04-27T04:23:10.683Z,95.19
2023-04-27T04:28:01.174Z,95.50
2023-04-27T04:32:53.954Z,96.33
2023-04-27T04:37:47.037Z,96.52
2023-04-27T04:42:38.049Z,96.32
2023-04-27T04:47:28.858Z,95.51
2023-04-27T04:52:18.848Z,95.23
2023-04-27T04:57:11.377Z,95.74
2023-04-27T05:02:01.831Z,95.87
2023-04-27T05:06:53.118Z,96.04
2023-04-27T05:11:56.720Z,95.00
2023-04-27T05:16:49.589Z,94.78
2023-04-27T05:21:40.575Z,94.75
2023-04-27T05:26:30.753Z,94.40
2023-04-27T05:31:21.456Z,94.00
2023-04-27T05:36:14.848Z,94.47
2023-04-27T05:41:05.190Z,94.54
2023-04-27T05:45:56.199Z,93.76
2023-04-27T05:50:46.580Z,93.59
2023-04-27T05:55:39.654Z,93.61
2023-04-27T06:00:29.673Z,93.17
2023-04-27T06:05:20.069Z,91.97
2023-04-27T06:10:11.931Z,91.57
2023-04-27T06:15:08.686Z,90.65
2023-04-27T06:20:01.020Z,88.87
2023-04-27T06:24:50.941Z,87.50
2023-04-27T06:29:40.852Z,85.54
2023-04-27T06:34:33.342Z,84.80
2023-04-27T06:39:23.512Z,83.40
2023-04-27T06:44:13.471Z,83.22
2023-04-27T06:49:03.344Z,82.73
2023-04-27T06:53:57.451Z,82.13
2023-04-27T06:58:47.406Z,82.17
2023-04-27T07:03:43.671Z,81.30
2023-04-27T07:08:33.637Z,81.41
2023-04-27T07:13:26.623Z,82.22
2023-04-27T07:18:16.611Z,81.69
2023-04-27T07:23:09.028Z,81.98
2023-04-27T07:27:59.894Z,80.62
2023-04-27T07:32:54.855Z,77.47
2023-04-27T07:37:45.728Z,75.98
2023-04-27T07:42:35.647Z,74.83
2023-04-27T07:47:25.697Z,73.62
2023-04-27T07:52:18.367Z,73.98
2023-04-27T07:57:11.806Z,72.82
2023-04-27T08:02:17.653Z,70.80
2023-04-27T08:07:09.750Z,68.58
2023-04-27T08:12:06.822Z,66.15
2023-04-27T08:16:56.927Z,62.66
2023-04-27T08:21:46.986Z,60.42
2023-04-27T08:26:36.970Z,56.53
2023-04-27T08:31:30.491Z,53.68
2023-04-27T08:36:20.558Z,50.59
2023-04-27T08:41:21.300Z,49.32
2023-04-27T08:46:12.113Z,48.33
2023-04-27T08:51:06.086Z,47.43
2023-04-27T08:55:56.988Z,44.88
2023-04-27T09:00:51.969Z,43.79
2023-04-27T09:06:00.654Z,42.49
2023-04-27T09:10:56.981Z,42.30
2023-04-27T09:15:48.990Z,41.00
2023-04-27T09:20:46.407Z,40.40
2023-04-27T09:25:38.228Z,40.92
2023-04-27T09:30:31.991Z,40.77
2023-04-27T09:35:25.658Z,41.14
2023-04-27T09:40:16.693Z,41.00
2023-04-27T09:45:17.979Z,42.07
2023-04-27T09:50:12.622Z,41.40
2023-04-27T09:55:03.968Z,42.13
2023-04-27T10:00:16.486Z,39.78
2023-04-27T10:05:28.910Z,39.15
2023-04-27T10:10:21.217Z,39.25
2023-04-27T10:15:18.692Z,38.81
2023-04-27T10:20:11.746Z,39.41
2023-04-27T10:25:04.430Z,39.13
2023-04-27T10:29:55.223Z,36.89
2023-04-27T10:34:47.784Z,38.10
2023-04-27T10:39:48.708Z,37.71
2023-04-27T10:44:42.530Z,37.81
2023-04-27T10:49:33.116Z,37.52
2023-04-27T10:54:29.370Z,36.40
2023-04-27T10:59:19.349Z,35.84
2023-04-27T11:04:12.420Z,37.13
2023-04-27T11:09:06.676Z,36.51
2023-04-27T11:13:56.678Z,36.56
2023-04-27T11:18:47.825Z,36.77
2023-04-27T11:23:43.800Z,36.46
2023-04-27T11:28:33.738Z,36.85
2023-04-27T11:33:24.222Z,35.76
2023-04-27T11:38:20.744Z,36.62
2023-04-27T11:43:15.736Z,36.98
2023-04-27T11:48:05.767Z,34.71
2023-04-27T11:52:56.197Z,36.44
2023-04-27T11:57:46.315Z,34.72
2023-04-27T12:02:39.046Z,35.60
2023-04-27T12:07:29.377Z,36.92
2023-04-27T12:12:22.755Z,39.56
2023-04-27T12:17:12.791Z,37.76
2023-04-27T12:22:05.595Z,37.67
2023-04-27T12:26:55.869Z,39.89
2023-04-27T12:31:45.986Z,36.46
2023-04-27T12:36:36.483Z,37.35
2023-04-27T12:41:29.475Z,38.05
2023-04-27T12:46:20.121Z,36.29
2023-04-27T12:51:10.086Z,34.24
2023-04-27T12:56:02.072Z,34.62
2023-04-27T13:00:57.863Z,34.70
2023-04-27T13:05:48.004Z,36.86
2023-04-27T13:10:37.864Z,35.10
2023-04-27T13:15:29.939Z,36.55
2023-04-27T13:20:23.649Z,36.62
2023-04-27T13:25:13.447Z,36.54
2023-04-27T13:30:03.241Z,35.49
2023-04-27T13:34:53.057Z,35.11
2023-04-27T13:39:45.929Z,34.41
2023-04-27T13:44:35.773Z,35.21
2023-04-27T13:49:26.111Z,34.93
2023-04-27T13:54:16.091Z,34.66
2023-04-27T13:59:10.628Z,35.03
2023-04-27T14:04:00.638Z,35.31
2023-04-27T14:08:51.432Z,34.57
2023-04-27T14:13:42.249Z,34.43
2023-04-27T14:18:34.925Z,33.63
2023-04-27T14:23:25.061Z,33.91
2023-04-27T14:28:16.786Z,35.13
2023-04-27T14:33:06.973Z,35.02
2023-04-27T14:38:02.476Z,35.07
2023-04-27T14:42:52.899Z,35.59
2023-04-27T14:47:42.730Z,34.93
2023-04-27T14:52:32.780Z,34.47
2023-04-27T14:57:25.200Z,34.71
2023-04-27T15:02:15.081Z,35.36
2023-04-27T15:07:05.528Z,35.99
2023-04-27T15:11:55.339Z,35.01
2023-04-27T15:16:47.892Z,35.87
2023-04-27T15:21:39.086Z,36.83
2023-04-27T15:26:29.701Z,37.15
2023-04-27T15:31:19.682Z,36.49
2023-04-27T15:36:13.081Z,36.46
2023-04-27T15:41:03.477Z,38.07
2023-04-27T15:45:54.769Z,37.63
2023-04-27T15:50:44.881Z,38.38
2023-04-27T15:55:37.491Z,37.73
2023-04-27T16:00:27.778Z,36.56
2023-04-27T16:05:18.127Z,36.74
2023-04-27T16:10:09.245Z,36.18
2023-04-27T16:15:01.784Z,37.15
2023-04-27T16:19:51.798Z,37.99
2023-04-27T16:24:41.634Z,37.33
2023-04-27T16:29:31.697Z,38.82
2023-04-27T16:34:24.509Z,38.04
2023-04-27T16:39:15.209Z,38.21
2023-04-27T16:44:05.775Z,38.20
2023-04-27T16:48:56.119Z,39.00
2023-04-27T16:53:50.794Z,39.88
2023-04-27T16:58:43.281Z,40.28
2023-04-27T17:03:34.949Z,40.38
2023-04-27T17:08:26.242Z,41.45
2023-04-27T17:13:19.327Z,41.22
2023-04-27T17:18:09.944Z,40.99
2023-04-27T17:22:59.724Z,41.28
2023-04-27T17:27:52.595Z,41.56
2023-04-27T17:32:45.254Z,42.12
2023-04-27T17:37:35.085Z,42.79
2023-04-27T17:42:26.126Z,42.30
2023-04-27T17:47:19.005Z,42.88
2023-04-27T17:52:12.708Z,44.00
2023-04-27T17:57:02.651Z,43.41
2023-04-27T18:01:55.241Z,44.22
2023-04-27T18:06:45.523Z,43.77
2023-04-27T18:11:38.698Z,44.01
2023-04-27T18:16:29.093Z,44.22
2023-04-27T18:21:19.373Z,44.76
2023-04-27T18:26:11.070Z,45.64
2023-04-27T18:31:04.466Z,46.50
2023-04-27T18:35:54.472Z,46.56
2023-04-27T18:40:51.138Z,46.87
2023-04-27T18:45:41.106Z,47.20
2023-04-27T18:50:33.762Z,47.36
2023-04-27T18:55:26.218Z,46.86
2023-04-27T19:00:17.611Z,47.20
2023-04-27T19:05:13.155Z,47.62
2023-04-27T19:10:06.948Z,47.47
2023-04-27T19:15:04.863Z,48.07
2023-04-27T19:19:55.296Z,48.17
2023-04-27T19:24:45.278Z,48.66
2023-04-27T19:29:54.923Z,48.84
2023-04-27T19:34:44.884Z,49.21
2023-04-27T19:39:35.977Z,49.62
2023-04-27T19:44:26.261Z,49.30
2023-04-27T19:49:19.267Z,50.11
2023-04-27T19:54:12.210Z,50.27
2023-04-27T19:59:04.371Z,50.43
2023-04-27T20:03:54.630Z,50.33
2023-04-27T20:08:47.069Z,51.18
2023-04-27T20:13:38.849Z,51.54
2023-04-27T20:18:31.873Z,51.87
2023-04-27T20:23:21.672Z,52.29
2023-04-27T20:28:14.625Z,53.13
2023-04-27T20:33:04.794Z,53.24
2023-04-27T20:37:55.015Z,53.79
2023-04-27T20:42:46.023Z,54.32
2023-04-27T20:47:38.576Z,54.00
2023-04-27T20:52:31.825Z,54.45
2023-04-27T20:57:23.086Z,54.23
2023-04-27T21:02:13.021Z,54.50
2023-04-27T21:07:06.177Z,54.40
2023-04-27T21:11:56.085Z,54.80
2023-04-27T21:16:45.949Z,54.57
2023-04-27T21:21:35.775Z,54.31
2023-04-27T21:26:28.455Z,54.48
2023-04-27T21:31:20.044Z,54.52
2023-04-27T21:36:10.893Z,54.14
2023-04-27T21:41:02.007Z,53.99
2023-04-27T21:45:54.916Z,54.50
2023-04-27T21:50:44.904Z,54.14
2023-04-27T21:55:34.743Z,54.41
2023-04-27T22:00:25.810Z,54.57
2023-04-27T22:05:21.137Z,54.45
2023-04-27T22:10:12.218Z,54.12
2023-04-27T22:15:03.383Z,54.22
2023-04-27T22:19:53.169Z,54.31
2023-04-27T22:24:45.657Z,54.82
2023-04-27T22:29:35.642Z,54.71
2023-04-27T22:34:26.329Z,54.30
2023-04-27T22:39:16.390Z,54.50
2023-04-27T22:44:08.874Z,55.40
2023-04-27T22:49:01.581Z,55.73
2023-04-27T22:53:51.855Z,55.36
2023-04-27T22:58:45.241Z,55.18
2023-04-27T23:03:38.294Z,55.50
2023-04-27T23:08:29.023Z,55.54
2023-04-27T23:13:18.826Z,56.15
2023-04-27T23:18:10.012Z,55.85
2023-04-27T23:23:02.750Z,58.41
2023-04-27T23:27:53.000Z,60.68
2023-04-27T23:32:43.459Z,61.36
2023-04-27T23:37:34.738Z,62.92
2023-04-27T23:42:27.825Z,63.93
2023-04-27T23:47:17.661Z,63.95
2023-04-27T23:52:08.112Z,63.86
2023-04-27T23:56:58.295Z,64.51
